Date,TemperatureHighF,TemperatureAvgF,TemperatureLowF,DewpointHighF,DewpointAvgF,DewpointLowF,HumidityHigh,HumidityAvg,HumidityLow,PressureMaxIn,PressureMinIn,WindSpeedMaxMPH,WindSpeedAvgMPH,GustSpeedMaxMPH,PrecipitationSumIn
2013-1-1,27,22,19,23,20,17,95,90,84,0.00,40.00,2,2,6,0.00
2013-1-2,30,28,26,23,21,19,88,74,63,0.00,40.00,2,1,5,0.00
2013-1-3,30,23,12,21,17,9,87,79,68,0.00,40.00,3,2,27,0.00
2013-1-4,31,30,26,24,22,21,81,74,68,0.00,40.00,2,1,6,0.00
2013-1-5,39,33,27,31,28,24,88,80,66,0.00,40.00,6,2,9,0.00
2013-1-6,33,29,27,29,27,25,95,91,85,0.00,40.00,3,2,6,0.00
2013-1-7,38,34,30,38,33,29,100,97,92,0.00,40.00,3,2,7,0.00
2013-1-8,35,34,33,34,33,32,100,97,96,0.00,40.00,3,2,5,0.00
2013-1-9,46,43,38,37,34,30,82,69,62,0.00,40.00,17,7,24,0.00
2013-1-10,33,30,28,28,26,25,95,85,75,0.00,40.00,7,4,14,0.00
2013-1-11,36,30,18,26,21,13,92,72,47,0.00,40.00,7,3,12,0.00
2013-1-12,25,19,13,19,16,11,95,88,71,0.00,40.00,6,2,9,0.00
2013-1-13,28,20,14,19,15,12,91,81,62,0.00,40.00,5,2,6,0.00
2013-1-14,26,23,19,24,20,14,92,87,80,0.00,40.00,2,2,7,0.00
2013-1-15,31,27,22,26,23,20,95,86,78,0.00,40.00,3,2,6,0.00
2013-1-16,36,27,19,30,25,18,95,91,78,0.00,40.00,3,2,6,0.00
2013-1-17,26,22,19,26,21,18,100,95,91,0.00,40.00,3,2,6,0.00
2013-1-18,27,21,17,24,19,16,95,92,84,0.00,40.00,3,1,5,0.00
2013-1-23,33,29,20,29,24,19,95,83,72,0.00,40.00,3,1,5,0.00
2013-1-24,33,30,26,30,28,24,92,88,81,0.00,40.00,3,2,5,0.00
2013-1-25,36,34,31,35,34,30,100,97,96,0.00,40.00,2,1,5,0.00
2013-1-26,37,35,33,36,33,32,100,93,81,0.00,40.00,8,2,12,0.00
2013-1-27,34,32,29,31,29,27,92,87,81,0.00,40.00,5,3,7,0.00
2013-1-28,33,32,30,31,30,28,96,91,85,0.00,40.00,7,2,13,0.00
2013-1-29,34,32,31,31,31,30,96,94,88,0.00,40.00,2,1,5,0.00
2013-1-31,42,37,33,38,36,33,100,97,85,0.00,40.00,2,1,5,0.00